createdAt,value
2022-12-19T00:00:05.614Z,44.47
2022-12-19T00:00:39.510Z,44.60
2022-12-19T00:01:18.743Z,39.55
2022-12-19T00:01:50.205Z,39.50
2022-12-19T00:02:21.756Z,42.63
2022-12-19T00:02:53.312Z,38.53
2022-12-19T00:03:24.998Z,36.00
2022-12-19T00:04:07.641Z,39.88
2022-12-19T00:04:40.218Z,39.33
2022-12-19T00:05:11.660Z,39.63
2022-12-19T00:05:43.176Z,38.88
2022-12-19T00:06:15.777Z,38.33
2022-12-19T00:06:47.195Z,40.97
2022-12-19T00:07:18.601Z,38.83
2022-12-19T00:07:50.013Z,39.83
2022-12-19T00:08:21.323Z,36.03
2022-12-19T00:08:54.147Z,39.60
2022-12-19T00:09:26.465Z,36.22
2022-12-19T00:09:57.833Z,38.88
2022-12-19T00:10:29.175Z,37.55
2022-12-19T00:11:02.152Z,43.50
2022-12-19T00:11:33.682Z,39.65
2022-12-19T00:12:05.222Z,40.22
2022-12-19T00:12:38.087Z,37.58
2022-12-19T00:13:09.615Z,34.90
2022-12-19T00:13:41.680Z,42.00
2022-12-19T00:14:13.053Z,45.80
2022-12-19T00:14:44.503Z,38.20
2022-12-19T00:15:15.970Z,38.80
2022-12-19T00:15:47.376Z,37.08
2022-12-19T00:16:24.309Z,36.15
2022-12-19T00:16:55.745Z,38.13
2022-12-19T00:17:27.090Z,39.55
2022-12-19T00:17:58.486Z,36.42
2022-12-19T00:18:30.171Z,39.90
2022-12-19T00:19:01.618Z,42.05
2022-12-19T00:19:32.987Z,37.73
2022-12-19T00:20:04.686Z,36.90
2022-12-19T00:20:36.235Z,37.42
2022-12-19T00:21:09.390Z,43.53
2022-12-19T00:21:40.956Z,36.97
2022-12-19T00:22:12.343Z,38.00
2022-12-19T00:22:43.708Z,37.33
2022-12-19T00:23:15.103Z,40.72
2022-12-19T00:23:47.503Z,40.03
2022-12-19T00:24:21.428Z,34.55
2022-12-19T00:24:53.225Z,40.77
2022-12-19T00:25:24.634Z,38.30
2022-12-19T00:26:10.402Z,40.03
2022-12-19T00:26:41.711Z,41.88
2022-12-19T00:27:13.080Z,37.53
2022-12-19T00:27:44.651Z,35.65
2022-12-19T00:28:16.086Z,39.03
2022-12-19T00:28:52.621Z,39.60
2022-12-19T00:29:24.065Z,38.83
2022-12-19T00:29:55.390Z,42.97
2022-12-19T00:30:26.722Z,35.83
2022-12-19T00:31:00.831Z,39.05
2022-12-19T00:31:34.584Z,39.40
2022-12-19T00:32:06.056Z,38.60
2022-12-19T00:32:37.867Z,39.42
2022-12-19T00:33:09.283Z,35.28
2022-12-19T00:33:43.396Z,39.42
2022-12-19T00:34:15.679Z,39.50
2022-12-19T00:34:47.028Z,41.10
2022-12-19T00:35:18.417Z,36.08
2022-12-19T00:35:49.852Z,38.80
2022-12-19T00:36:26.758Z,38.28
2022-12-19T00:36:58.175Z,42.80
2022-12-19T00:37:29.666Z,42.10
2022-12-19T00:38:01.122Z,43.10
2022-12-19T00:38:32.951Z,42.33
2022-12-19T00:39:07.772Z,38.03
2022-12-19T00:39:39.618Z,39.53
2022-12-19T00:40:11.446Z,41.35
2022-12-19T00:40:42.756Z,38.88
2022-12-19T00:41:19.962Z,37.47
2022-12-19T00:41:51.383Z,36.10
2022-12-19T00:42:22.778Z,39.83
2022-12-19T00:42:54.112Z,35.72
2022-12-19T00:43:26.751Z,35.45
2022-12-19T00:44:00.678Z,35.72
2022-12-19T00:44:32.246Z,36.35
2022-12-19T00:45:03.927Z,39.72
2022-12-19T00:45:38.404Z,37.97
2022-12-19T00:46:12.992Z,36.05
2022-12-19T00:46:51.514Z,39.90
2022-12-19T00:47:24.391Z,36.92
2022-12-19T00:47:55.746Z,40.83
2022-12-19T00:48:27.055Z,35.95
2022-12-19T00:48:59.296Z,36.80
2022-12-19T00:49:30.658Z,40.05
2022-12-19T00:50:03.903Z,40.42
2022-12-19T00:50:35.249Z,35.10
2022-12-19T00:51:10.958Z,38.90
2022-12-19T00:51:42.322Z,36.53
2022-12-19T00:52:13.747Z,35.70
2022-12-19T00:52:45.078Z,39.20
2022-12-19T00:53:16.462Z,38.53
2022-12-19T00:53:49.447Z,40.70
2022-12-19T00:54:21.267Z,45.33
2022-12-19T00:54:52.993Z,37.40
2022-12-19T00:55:24.423Z,41.15
2022-12-19T00:55:56.433Z,39.47
2022-12-19T00:56:33.493Z,38.33
2022-12-19T00:57:09.378Z,38.83
2022-12-19T00:57:40.897Z,40.07
2022-12-19T00:58:12.198Z,37.50
2022-12-19T00:58:47.176Z,37.95
2022-12-19T00:59:26.316Z,37.65
2022-12-19T00:59:58.288Z,40.67
2022-12-19T01:00:29.599Z,35.75
2022-12-19T01:01:18.756Z,36.80
2022-12-19T01:01:50.387Z,35.47
2022-12-19T01:02:21.902Z,40.03
2022-12-19T01:02:53.528Z,34.35
2022-12-19T01:03:26.067Z,37.77
2022-12-19T01:04:28.158Z,33.60
2022-12-19T01:05:00.149Z,34.33
2022-12-19T01:05:31.512Z,34.05
2022-12-19T01:06:03.038Z,36.10
2022-12-19T01:06:34.794Z,35.75
2022-12-19T01:07:08.073Z,32.92
2022-12-19T01:07:39.480Z,36.25
2022-12-19T01:08:10.890Z,35.10
2022-12-19T01:08:42.266Z,32.10
2022-12-19T01:09:14.071Z,35.70
2022-12-19T01:09:45.475Z,33.53
2022-12-19T01:10:18.068Z,32.20
2022-12-19T01:10:50.037Z,31.25
2022-12-19T01:11:43.775Z,32.85
2022-12-19T01:12:35.480Z,30.42
2022-12-19T01:13:06.795Z,31.10
2022-12-19T01:13:39.586Z,31.60
2022-12-19T01:14:18.972Z,30.52
2022-12-19T01:14:57.743Z,33.90
2022-12-19T01:15:39.656Z,28.60
2022-12-19T01:16:13.584Z,34.28
2022-12-19T01:16:45.078Z,31.00
2022-12-19T01:17:16.554Z,30.23
2022-12-19T01:17:48.954Z,33.92
2022-12-19T01:18:20.383Z,29.55
2022-12-19T01:18:51.842Z,30.08
2022-12-19T01:19:44.343Z,33.05
2022-12-19T01:20:26.669Z,30.15
2022-12-19T01:21:02.999Z,30.20
2022-12-19T01:21:35.830Z,32.13
2022-12-19T01:22:07.422Z,31.00
2022-12-19T01:22:38.867Z,34.63
2022-12-19T01:23:11.218Z,34.33
2022-12-19T01:23:42.552Z,32.67
2022-12-19T01:24:14.733Z,33.72
2022-12-19T01:24:50.298Z,35.88
2022-12-19T01:25:21.766Z,31.27
2022-12-19T01:25:55.292Z,30.02
2022-12-19T01:26:26.618Z,29.42
2022-12-19T01:26:58.149Z,31.50
2022-12-19T01:27:31.256Z,30.98
2022-12-19T01:28:03.219Z,32.40
2022-12-19T01:28:34.595Z,33.00
2022-12-19T01:29:05.911Z,37.00
2022-12-19T01:29:38.692Z,36.65
2022-12-19T01:30:24.034Z,30.35
2022-12-19T01:30:56.146Z,32.40
2022-12-19T01:31:27.696Z,32.67
2022-12-19T01:32:00.333Z,33.40
2022-12-19T01:32:35.206Z,33.53
2022-12-19T01:33:06.848Z,34.53
2022-12-19T01:33:41.337Z,30.27
2022-12-19T01:34:14.893Z,34.83
2022-12-19T01:34:46.302Z,33.15
2022-12-19T01:35:21.667Z,31.73
2022-12-19T01:35:53.556Z,37.25
2022-12-19T01:36:25.141Z,32.55
2022-12-19T01:36:56.486Z,38.58
2022-12-19T01:37:27.802Z,39.10
2022-12-19T01:38:08.185Z,32.83
2022-12-19T01:38:40.039Z,34.65
2022-12-19T01:39:30.932Z,39.50
2022-12-19T01:40:05.760Z,32.03
2022-12-19T01:40:37.468Z,34.25
2022-12-19T01:41:10.590Z,34.20
2022-12-19T01:41:42.128Z,35.40
2022-12-19T01:42:22.944Z,34.05
2022-12-19T01:42:54.724Z,36.22
2022-12-19T01:43:30.300Z,31.85
2022-12-19T01:44:05.024Z,36.57
2022-12-19T01:44:36.930Z,31.40
2022-12-19T01:45:08.435Z,34.15
2022-12-19T01:45:45.687Z,37.80
2022-12-19T01:46:17.695Z,35.60
2022-12-19T01:46:57.485Z,34.97
2022-12-19T01:47:30.200Z,38.78
2022-12-19T01:48:04.221Z,34.15
2022-12-19T01:48:39.949Z,36.95
2022-12-19T01:49:31.882Z,34.90
2022-12-19T01:50:03.662Z,33.83
2022-12-19T01:50:41.424Z,31.98
2022-12-19T01:51:23.250Z,33.47
2022-12-19T01:51:58.771Z,35.35
2022-12-19T01:52:30.364Z,37.78
2022-12-19T01:53:03.232Z,34.63
2022-12-19T01:53:48.885Z,35.35
2022-12-19T01:54:26.903Z,34.50
2022-12-19T01:54:58.531Z,38.45
2022-12-19T01:55:30.790Z,37.58
2022-12-19T01:56:09.825Z,41.17
2022-12-19T01:56:47.190Z,36.95
2022-12-19T01:57:20.048Z,40.00
2022-12-19T01:57:52.361Z,38.60
2022-12-19T01:58:23.999Z,37.97
2022-12-19T01:59:05.827Z,38.75
2022-12-19T01:59:45.800Z,40.63
2022-12-19T02:00:17.236Z,33.35
2022-12-19T02:00:48.920Z,36.92
2022-12-19T02:01:20.398Z,37.17
2022-12-19T02:01:58.639Z,41.80
2022-12-19T02:02:36.004Z,38.65
2022-12-19T02:03:28.719Z,41.10
2022-12-19T02:04:02.551Z,40.28
2022-12-19T02:04:35.136Z,44.33
2022-12-19T02:05:07.296Z,37.70
2022-12-19T02:05:40.116Z,43.40
2022-12-19T02:06:13.416Z,42.90
2022-12-19T02:06:44.932Z,44.72
2022-12-19T02:07:20.159Z,41.83
2022-12-19T02:07:52.914Z,40.03
2022-12-19T02:08:24.790Z,39.55
2022-12-19T02:09:47.611Z,39.85
2022-12-19T02:10:23.776Z,42.17
2022-12-19T02:10:55.097Z,42.13
2022-12-19T02:11:26.421Z,37.13
2022-12-19T02:12:00.041Z,42.80
2022-12-19T02:12:35.677Z,39.78
2022-12-19T02:13:08.031Z,39.38
2022-12-19T02:13:40.767Z,38.17
2022-12-19T02:14:14.893Z,45.83
2022-12-19T02:14:47.038Z,48.50
2022-12-19T02:15:18.624Z,47.38
2022-12-19T02:16:19.874Z,48.13
2022-12-19T02:17:22.879Z,38.05
2022-12-19T02:18:24.087Z,39.78
2022-12-19T02:19:14.568Z,36.95
2022-12-19T02:20:07.664Z,38.72
2022-12-19T02:21:09.949Z,33.05
2022-12-19T02:22:08.237Z,36.23
2022-12-19T02:23:01.113Z,37.35
2022-12-19T02:23:47.385Z,37.88
2022-12-19T02:24:46.540Z,40.05
2022-12-19T02:25:48.454Z,37.95
2022-12-19T02:26:23.990Z,36.83
2022-12-19T02:27:17.950Z,40.45
2022-12-19T02:28:04.517Z,39.97
2022-12-19T02:28:59.596Z,36.72
2022-12-19T02:29:52.032Z,52.25
2022-12-19T02:30:35.726Z,38.20
2022-12-19T02:31:58.845Z,38.20
2022-12-19T02:32:43.304Z,37.97
2022-12-19T02:33:20.589Z,45.28
2022-12-19T02:34:03.113Z,38.15
2022-12-19T02:34:34.447Z,39.30
2022-12-19T02:35:20.044Z,36.35
2022-12-19T02:35:54.740Z,36.22
2022-12-19T02:36:42.051Z,38.28
2022-12-19T02:37:28.179Z,36.75
2022-12-19T02:38:03.637Z,41.23
2022-12-19T02:39:00.976Z,38.92
2022-12-19T02:39:42.664Z,39.17
2022-12-19T02:41:06.519Z,41.92
2022-12-19T02:41:57.289Z,37.97
2022-12-19T02:42:32.615Z,42.53
2022-12-19T02:43:06.533Z,39.00
2022-12-19T02:43:42.632Z,43.85
2022-12-19T02:44:37.861Z,41.28
2022-12-19T02:45:28.590Z,42.50
2022-12-19T02:46:02.849Z,34.30
2022-12-19T02:46:34.809Z,38.92
2022-12-19T02:47:07.568Z,44.50
2022-12-19T02:47:39.670Z,42.90
2022-12-19T02:48:16.158Z,53.10
2022-12-19T02:48:51.605Z,39.65
2022-12-19T02:49:30.638Z,47.20
2022-12-19T02:50:04.431Z,46.38
2022-12-19T02:50:41.521Z,44.22
2022-12-19T02:51:12.840Z,45.13
2022-12-19T02:51:44.318Z,53.83
2022-12-19T02:52:21.338Z,48.83
2022-12-19T02:52:52.722Z,50.40
2022-12-19T02:53:24.302Z,48.38
2022-12-19T02:53:55.966Z,45.95
2022-12-19T02:54:27.380Z,51.15
2022-12-19T02:55:11.410Z,44.35
2022-12-19T02:56:10.826Z,45.38
2022-12-19T02:56:50.748Z,34.80
2022-12-19T02:57:40.837Z,42.25
2022-12-19T02:58:18.073Z,37.40
2022-12-19T02:59:38.999Z,45.67
2022-12-19T03:00:24.326Z,35.97
2022-12-19T03:03:12.526Z,34.67
2022-12-19T03:03:59.541Z,42.85
2022-12-19T03:04:40.108Z,37.55
2022-12-19T03:05:19.981Z,34.70
2022-12-19T03:06:09.583Z,41.65
2022-12-19T03:06:49.618Z,33.47
2022-12-19T03:07:33.407Z,40.08
2022-12-19T03:08:23.425Z,34.50
2022-12-19T03:09:14.027Z,34.47
2022-12-19T03:09:57.680Z,37.28
2022-12-19T03:10:46.022Z,41.67
2022-12-19T03:11:17.668Z,35.67
2022-12-19T03:11:54.058Z,40.85
2022-12-19T03:12:36.072Z,38.58
2022-12-19T03:13:21.307Z,41.55
2022-12-19T03:14:22.720Z,37.10
2022-12-19T03:14:56.877Z,38.05
2022-12-19T03:15:29.144Z,37.63
2022-12-19T03:16:02.557Z,37.53
2022-12-19T03:16:36.317Z,41.75
2022-12-19T03:17:08.505Z,40.58
2022-12-19T03:17:40.315Z,44.90
2022-12-19T03:18:12.048Z,51.63
2022-12-19T03:18:44.225Z,48.03
2022-12-19T03:19:16.760Z,44.08
2022-12-19T03:19:48.344Z,45.90
2022-12-19T03:20:28.725Z,46.05
2022-12-19T03:21:06.710Z,41.15
2022-12-19T03:21:45.321Z,38.67
2022-12-19T03:22:16.810Z,42.95
2022-12-19T03:22:48.274Z,43.88
2022-12-19T03:23:20.487Z,39.33
2022-12-19T03:23:55.018Z,37.58
2022-12-19T03:24:27.163Z,37.60
2022-12-19T03:24:58.553Z,42.67
2022-12-19T03:25:31.062Z,41.63
2022-12-19T03:26:09.720Z,40.67
2022-12-19T03:26:47.065Z,39.60
2022-12-19T03:27:28.230Z,37.75
2022-12-19T03:28:03.415Z,37.92
2022-12-19T03:28:50.545Z,41.95
2022-12-19T03:29:29.271Z,37.88
2022-12-19T03:30:05.859Z,36.65
2022-12-19T03:30:41.170Z,35.17
2022-12-19T03:31:14.940Z,39.45
2022-12-19T03:31:47.245Z,35.87
2022-12-19T03:32:20.669Z,36.75
2022-12-19T03:32:52.921Z,40.50
2022-12-19T03:33:27.624Z,39.17
2022-12-19T03:34:10.009Z,42.30
2022-12-19T03:34:53.729Z,43.55
2022-12-19T03:35:28.949Z,41.40
2022-12-19T03:36:05.263Z,40.70
2022-12-19T03:36:42.746Z,38.38
2022-12-19T03:37:36.173Z,42.38
2022-12-19T03:38:11.172Z,42.73
2022-12-19T03:38:46.237Z,40.15
2022-12-19T03:39:20.792Z,40.38
2022-12-19T03:40:00.730Z,35.85
2022-12-19T03:40:35.978Z,36.47
2022-12-19T03:41:10.825Z,45.08
2022-12-19T03:42:02.922Z,40.08
2022-12-19T03:42:56.523Z,40.10
2022-12-19T03:43:29.256Z,32.65
2022-12-19T03:44:01.544Z,44.72
2022-12-19T03:44:36.840Z,43.97
2022-12-19T03:45:09.348Z,44.10
2022-12-19T03:46:00.422Z,44.80
2022-12-19T03:46:32.707Z,42.40
2022-12-19T03:47:13.393Z,38.00
2022-12-19T03:47:50.862Z,42.00
2022-12-19T03:48:45.251Z,34.70
2022-12-19T03:49:16.800Z,33.70
2022-12-19T03:49:48.781Z,36.58
2022-12-19T03:50:22.225Z,33.25
2022-12-19T03:51:35.067Z,35.97
2022-12-19T03:52:21.325Z,31.90
2022-12-19T03:53:03.632Z,31.58
2022-12-19T03:53:34.920Z,34.55
2022-12-19T03:54:23.359Z,32.78
2022-12-19T03:55:06.389Z,31.20
2022-12-19T03:55:53.329Z,32.75
2022-12-19T03:56:50.982Z,31.70
2022-12-19T03:57:34.160Z,33.63
2022-12-19T03:58:26.597Z,32.38
2022-12-19T03:59:05.031Z,31.53
2022-12-19T03:59:48.052Z,31.33
2022-12-19T04:00:21.191Z,29.77
2022-12-19T04:00:54.566Z,33.65
2022-12-19T04:01:28.313Z,34.33
2022-12-19T04:02:01.643Z,31.02
2022-12-19T04:02:38.128Z,31.42
2022-12-19T04:03:10.394Z,34.50
2022-12-19T04:03:42.075Z,33.13
2022-12-19T04:04:14.808Z,31.80
2022-12-19T04:04:52.153Z,32.90
2022-12-19T04:05:26.817Z,34.50
2022-12-19T04:06:00.886Z,35.58
2022-12-19T04:06:34.098Z,30.13
2022-12-19T04:07:06.989Z,39.35
2022-12-19T04:07:40.165Z,37.67
2022-12-19T04:08:11.948Z,30.30
2022-12-19T04:08:44.088Z,34.25
2022-12-19T04:09:22.393Z,37.30
2022-12-19T04:09:55.800Z,34.25
2022-12-19T04:10:28.810Z,34.07
2022-12-19T04:11:14.041Z,32.55
2022-12-19T04:11:51.645Z,31.02
2022-12-19T04:12:30.354Z,32.25
2022-12-19T04:13:09.223Z,29.92
2022-12-19T04:13:50.123Z,26.73
2022-12-19T04:14:30.724Z,26.90
2022-12-19T04:15:03.260Z,32.97
2022-12-19T04:15:51.250Z,35.13
2022-12-19T04:16:52.262Z,26.30
2022-12-19T04:17:42.001Z,23.50
2022-12-19T04:18:14.317Z,27.20
2022-12-19T04:18:53.224Z,28.58
2022-12-19T04:19:36.440Z,43.97
2022-12-19T04:20:16.771Z,24.85
2022-12-19T04:20:58.503Z,27.15
2022-12-19T04:21:38.534Z,23.02
2022-12-19T04:22:43.826Z,24.83
2022-12-19T04:23:22.067Z,21.75
2022-12-19T04:24:03.413Z,23.23
2022-12-19T04:24:38.862Z,27.33
2022-12-19T04:25:14.441Z,30.85
2022-12-19T04:25:51.735Z,29.17
2022-12-19T04:26:24.372Z,24.92
2022-12-19T04:26:58.489Z,22.58
2022-12-19T04:27:34.014Z,26.48
2022-12-19T04:28:20.261Z,22.83
2022-12-19T04:28:58.809Z,23.23
2022-12-19T04:29:34.103Z,20.13
2022-12-19T04:30:06.300Z,24.35
2022-12-19T04:30:39.658Z,23.73
2022-12-19T04:31:13.906Z,24.60
2022-12-19T04:31:46.168Z,24.92
2022-12-19T04:32:19.108Z,24.02
2022-12-19T04:32:51.206Z,22.02
2022-12-19T04:33:22.744Z,22.17
2022-12-19T04:33:54.189Z,23.38
2022-12-19T04:34:25.757Z,22.67
2022-12-19T04:34:59.994Z,29.27
2022-12-19T04:35:31.475Z,27.95
2022-12-19T04:36:03.081Z,29.23
2022-12-19T04:36:34.645Z,29.67
2022-12-19T04:37:06.565Z,28.08
2022-12-19T04:37:38.533Z,22.73
2022-12-19T04:38:09.979Z,27.77
2022-12-19T04:38:41.586Z,24.58
2022-12-19T04:39:13.020Z,23.90
2022-12-19T04:39:44.505Z,24.40
2022-12-19T04:40:15.958Z,29.40
2022-12-19T04:40:47.389Z,23.38
2022-12-19T04:41:18.875Z,26.67
2022-12-19T04:41:50.237Z,26.77
2022-12-19T04:42:21.893Z,24.75
2022-12-19T04:42:53.317Z,28.33
2022-12-19T04:43:24.929Z,29.08
2022-12-19T04:43:56.329Z,29.08
2022-12-19T04:44:27.728Z,28.02
2022-12-19T04:44:59.094Z,30.80
2022-12-19T04:45:30.559Z,30.35
2022-12-19T04:46:02.548Z,31.27
2022-12-19T04:47:23.067Z,23.13
2022-12-19T04:47:54.627Z,22.58
2022-12-19T04:48:26.430Z,26.25
2022-12-19T04:48:57.797Z,28.52
2022-12-19T04:49:29.311Z,28.08
2022-12-19T04:50:00.908Z,28.83
2022-12-19T04:50:33.175Z,29.25
2022-12-19T04:51:04.646Z,26.55
2022-12-19T04:51:36.120Z,28.58
2022-12-19T04:52:08.000Z,27.37
2022-12-19T04:52:39.428Z,24.20
2022-12-19T04:53:10.876Z,29.42
2022-12-19T04:53:42.777Z,29.52
2022-12-19T04:54:14.210Z,24.35
2022-12-19T04:54:45.558Z,32.47
2022-12-19T04:55:16.919Z,24.75
2022-12-19T04:55:48.339Z,24.77
2022-12-19T04:56:19.744Z,27.27
2022-12-19T04:56:53.314Z,27.95
2022-12-19T04:57:24.714Z,27.57
2022-12-19T04:57:56.130Z,24.80
2022-12-19T04:58:29.989Z,29.48
2022-12-19T04:59:01.541Z,26.77
2022-12-19T04:59:33.079Z,25.45
2022-12-19T05:00:07.046Z,34.70
2022-12-19T05:00:38.450Z,31.95
2022-12-19T05:01:10.100Z,29.98
2022-12-19T05:01:41.569Z,29.40
2022-12-19T05:02:13.178Z,29.05
2022-12-19T05:02:45.598Z,23.73
2022-12-19T05:03:17.140Z,30.30
2022-12-19T05:03:54.264Z,29.38
2022-12-19T05:04:26.684Z,28.60
2022-12-19T05:04:58.619Z,34.10
2022-12-19T05:05:30.001Z,25.63
2022-12-19T05:06:10.036Z,27.33
2022-12-19T05:06:41.441Z,26.83
2022-12-19T05:07:15.970Z,27.85
2022-12-19T05:07:47.444Z,26.95
2022-12-19T05:08:18.851Z,22.13
2022-12-19T05:08:50.222Z,28.05
2022-12-19T05:09:21.682Z,26.20
2022-12-19T05:09:53.278Z,29.55
2022-12-19T05:10:24.880Z,29.70
2022-12-19T05:11:00.632Z,26.08
2022-12-19T05:11:32.089Z,25.73
2022-12-19T05:12:03.739Z,30.10
2022-12-19T05:12:35.129Z,29.20
2022-12-19T05:13:06.508Z,29.58
2022-12-19T05:13:38.068Z,24.13
2022-12-19T05:14:10.131Z,27.85
2022-12-19T05:14:41.556Z,27.15
2022-12-19T05:15:12.935Z,29.38
2022-12-19T05:15:44.305Z,30.23
2022-12-19T05:16:16.315Z,29.33
2022-12-19T05:16:47.714Z,29.73
2022-12-19T05:17:19.389Z,24.58
2022-12-19T05:17:50.792Z,26.75
2022-12-19T05:18:22.180Z,24.55
2022-12-19T05:18:54.205Z,27.40
2022-12-19T05:19:25.583Z,28.02
2022-12-19T05:19:57.015Z,25.17
2022-12-19T05:20:28.504Z,26.88
2022-12-19T05:21:00.412Z,22.38
2022-12-19T05:21:31.749Z,22.63
2022-12-19T05:22:03.122Z,25.02
2022-12-19T05:22:34.964Z,25.83
2022-12-19T05:23:12.076Z,30.15
2022-12-19T05:23:47.620Z,20.75
2022-12-19T05:24:19.012Z,32.50
2022-12-19T05:24:50.342Z,28.42
2022-12-19T05:25:21.759Z,21.42
2022-12-19T05:25:53.240Z,24.65
2022-12-19T05:26:24.876Z,25.05
2022-12-19T05:26:56.242Z,25.17
2022-12-19T05:27:27.569Z,20.95
2022-12-19T05:27:58.893Z,20.90
2022-12-19T05:28:30.986Z,24.00
2022-12-19T05:29:02.563Z,22.08
2022-12-19T05:29:34.724Z,20.83
2022-12-19T05:30:06.759Z,18.95
2022-12-19T05:30:38.218Z,20.50
2022-12-19T05:31:15.098Z,23.20
2022-12-19T05:31:46.614Z,23.90
2022-12-19T05:32:18.139Z,23.48
2022-12-19T05:32:49.521Z,20.80
2022-12-19T05:33:20.920Z,21.48
2022-12-19T05:33:52.355Z,19.70
2022-12-19T05:34:24.759Z,21.58
2022-12-19T05:34:56.172Z,20.50
2022-12-19T05:35:27.770Z,27.05
2022-12-19T05:35:59.312Z,18.60
2022-12-19T05:36:32.627Z,22.50
2022-12-19T05:37:04.407Z,20.50
2022-12-19T05:37:35.803Z,21.48
2022-12-19T05:38:07.362Z,26.63
2022-12-19T05:38:38.881Z,19.73
2022-12-19T05:39:11.695Z,19.27
2022-12-19T05:39:43.124Z,28.20
2022-12-19T05:40:14.566Z,23.60
2022-12-19T05:40:45.985Z,19.65
2022-12-19T05:41:19.548Z,28.42
2022-12-19T05:41:51.064Z,25.80
2022-12-19T05:42:22.399Z,33.67
2022-12-19T05:42:53.858Z,20.90
2022-12-19T05:43:25.243Z,25.52
2022-12-19T05:43:56.812Z,23.00
2022-12-19T05:44:28.239Z,21.35
2022-12-19T05:44:59.586Z,24.13
2022-12-19T05:45:30.957Z,25.63
2022-12-19T05:46:04.539Z,21.95
2022-12-19T05:46:36.143Z,27.33
2022-12-19T05:47:08.180Z,19.60
2022-12-19T05:47:39.501Z,22.10
2022-12-19T05:48:10.843Z,19.33
2022-12-19T05:48:42.245Z,23.90
2022-12-19T05:49:16.997Z,22.70
2022-12-19T05:49:48.576Z,23.70
2022-12-19T05:50:20.181Z,19.98
2022-12-19T05:50:51.558Z,21.33
2022-12-19T05:51:23.030Z,17.42
2022-12-19T05:51:54.381Z,21.42
2022-12-19T05:52:25.783Z,19.88
2022-12-19T05:52:57.353Z,22.20
2022-12-19T05:53:29.306Z,21.95
2022-12-19T05:54:01.135Z,22.80
2022-12-19T05:54:32.552Z,18.60
2022-12-19T05:55:05.427Z,20.73
2022-12-19T05:55:36.811Z,20.55
2022-12-19T05:56:11.755Z,19.00
2022-12-19T05:56:43.296Z,18.27
2022-12-19T05:57:14.658Z,19.10
2022-12-19T05:57:46.077Z,17.52
2022-12-19T05:58:19.102Z,17.30
2022-12-19T05:58:50.556Z,20.27
2022-12-19T05:59:21.910Z,20.55
2022-12-19T05:59:53.310Z,21.60
2022-12-19T06:00:25.625Z,20.98
2022-12-19T06:01:02.786Z,19.70
2022-12-19T06:01:53.568Z,19.63
2022-12-19T06:02:25.729Z,16.52
2022-12-19T06:02:57.394Z,17.48
2022-12-19T06:03:28.827Z,16.60
2022-12-19T06:04:00.197Z,22.80
2022-12-19T06:04:31.642Z,19.80
2022-12-19T06:05:03.184Z,19.52
2022-12-19T06:05:37.317Z,22.15
2022-12-19T06:06:12.195Z,20.20
2022-12-19T06:06:43.766Z,18.67
2022-12-19T06:07:20.596Z,20.63
2022-12-19T06:07:52.309Z,20.52
2022-12-19T06:08:23.675Z,18.85
2022-12-19T06:08:56.568Z,23.73
2022-12-19T06:09:28.012Z,23.33
2022-12-19T06:09:59.408Z,21.42
2022-12-19T06:10:30.822Z,16.50
2022-12-19T06:11:05.205Z,19.27
2022-12-19T06:11:36.675Z,16.02
2022-12-19T06:12:08.059Z,17.23
2022-12-19T06:12:39.562Z,18.60
2022-12-19T06:13:10.995Z,19.38
2022-12-19T06:13:42.392Z,16.40
2022-12-19T06:14:13.754Z,22.75
2022-12-19T06:14:45.103Z,22.08
2022-12-19T06:15:16.782Z,18.17
2022-12-19T06:15:48.201Z,25.02
2022-12-19T06:16:21.492Z,20.90
2022-12-19T06:16:53.089Z,22.77
2022-12-19T06:17:24.923Z,21.88
2022-12-19T06:17:56.356Z,22.07
2022-12-19T06:18:28.389Z,17.45
2022-12-19T06:18:59.808Z,20.98
2022-12-19T06:19:31.353Z,15.18
2022-12-19T06:20:02.776Z,15.27
2022-12-19T06:20:34.157Z,15.68
2022-12-19T06:21:08.229Z,20.08
2022-12-19T06:21:45.545Z,22.10
2022-12-19T06:22:19.198Z,18.52
2022-12-19T06:22:50.727Z,14.88
2022-12-19T06:23:22.950Z,16.23
2022-12-19T06:23:55.002Z,16.67
2022-12-19T06:24:26.405Z,18.23
2022-12-19T06:24:57.722Z,18.63
2022-12-19T06:25:29.687Z,17.17
2022-12-19T06:26:02.581Z,20.90
2022-12-19T06:26:33.944Z,26.52
2022-12-19T06:27:05.523Z,18.02
2022-12-19T06:27:36.857Z,18.45
2022-12-19T06:28:08.191Z,17.38
2022-12-19T06:28:40.074Z,16.37
2022-12-19T06:29:11.490Z,14.93
2022-12-19T06:29:42.881Z,18.95
2022-12-19T06:30:15.268Z,14.32
2022-12-19T06:30:47.168Z,15.38
2022-12-19T06:31:23.524Z,18.05
2022-12-19T06:31:56.166Z,17.33
2022-12-19T06:32:27.536Z,17.75
2022-12-19T06:32:58.973Z,17.92
2022-12-19T06:33:31.881Z,15.75
2022-12-19T06:34:03.293Z,14.10
2022-12-19T06:35:02.841Z,21.02
2022-12-19T06:35:26.286Z,15.95
2022-12-19T06:36:01.941Z,16.20
2022-12-19T06:36:33.509Z,15.10
2022-12-19T06:37:08.141Z,15.50
2022-12-19T06:37:39.887Z,13.70
2022-12-19T06:38:11.225Z,14.05
2022-12-19T06:38:42.650Z,16.33
2022-12-19T06:39:15.384Z,15.82
2022-12-19T06:39:46.734Z,16.93
2022-12-19T06:40:38.084Z,20.38
2022-12-19T06:41:29.287Z,10.65
2022-12-19T06:42:19.361Z,15.05
2022-12-19T06:42:50.932Z,13.25
2022-12-19T06:43:26.028Z,12.27
2022-12-19T06:43:58.828Z,13.48
2022-12-19T06:44:31.801Z,13.25
2022-12-19T06:45:03.602Z,17.95
2022-12-19T06:45:35.061Z,18.35
2022-12-19T06:46:07.021Z,16.10
2022-12-19T06:46:38.569Z,15.43
2022-12-19T06:47:10.013Z,13.48
2022-12-19T06:47:41.564Z,13.73
2022-12-19T06:48:12.962Z,16.17
2022-12-19T06:48:44.346Z,16.83
2022-12-19T06:49:15.901Z,15.75
2022-12-19T06:49:48.716Z,17.23
2022-12-19T06:50:20.037Z,12.77
2022-12-19T06:50:51.405Z,18.08
2022-12-19T06:51:23.321Z,16.20
2022-12-19T06:51:54.688Z,14.50
2022-12-19T06:52:26.118Z,17.05
2022-12-19T06:52:57.900Z,16.30
2022-12-19T06:53:30.048Z,17.48
2022-12-19T06:54:02.081Z,21.27
2022-12-19T06:54:33.503Z,15.30
2022-12-19T06:55:05.840Z,15.20
2022-12-19T06:55:37.750Z,15.55
2022-12-19T06:56:09.314Z,16.83
2022-12-19T06:56:42.678Z,19.20
2022-12-19T06:57:14.417Z,19.65
2022-12-19T06:57:46.499Z,16.65
2022-12-19T06:58:22.704Z,22.25
2022-12-19T06:58:55.626Z,21.15
2022-12-19T06:59:26.966Z,15.63
2022-12-19T06:59:58.477Z,18.15
2022-12-19T07:00:36.328Z,18.70
2022-12-19T07:01:08.305Z,14.82
2022-12-19T07:01:57.998Z,18.10
2022-12-19T07:02:31.867Z,16.13
2022-12-19T07:03:06.928Z,17.40
2022-12-19T07:03:41.200Z,17.50
2022-12-19T07:04:16.183Z,18.50
2022-12-19T07:04:54.094Z,14.95
2022-12-19T07:05:26.166Z,14.15
2022-12-19T07:05:58.048Z,15.40
2022-12-19T07:06:29.596Z,12.50
2022-12-19T07:07:01.386Z,18.67
2022-12-19T07:07:33.457Z,20.40
2022-12-19T07:08:05.377Z,18.27
2022-12-19T07:08:36.812Z,18.90
2022-12-19T07:09:08.421Z,23.30
2022-12-19T07:09:41.069Z,19.92
2022-12-19T07:10:12.538Z,19.85
2022-12-19T07:10:44.064Z,21.15
2022-12-19T07:11:15.424Z,17.50
2022-12-19T07:11:47.009Z,20.92
2022-12-19T07:12:18.567Z,18.58
2022-12-19T07:13:08.256Z,18.60
2022-12-19T07:13:39.735Z,17.93
2022-12-19T07:14:11.171Z,16.38
2022-12-19T07:14:42.733Z,18.60
2022-12-19T07:15:14.145Z,19.92
2022-12-19T07:15:45.777Z,21.17
2022-12-19T07:16:17.261Z,18.85
2022-12-19T07:16:50.829Z,20.42
2022-12-19T07:17:25.740Z,18.70
2022-12-19T07:17:59.034Z,18.70
2022-12-19T07:18:34.378Z,22.27
2022-12-19T07:19:09.187Z,23.93
2022-12-19T07:19:40.885Z,16.13
2022-12-19T07:20:13.835Z,21.20
2022-12-19T07:20:45.566Z,19.98
2022-12-19T07:21:17.089Z,21.35
2022-12-19T07:21:48.992Z,23.10
2022-12-19T07:22:20.906Z,24.23
2022-12-19T07:22:52.775Z,22.27
2022-12-19T07:23:24.428Z,25.67
2022-12-19T07:23:55.861Z,20.75
2022-12-19T07:24:27.469Z,20.13
2022-12-19T07:24:59.853Z,21.40
2022-12-19T07:25:31.817Z,19.52
2022-12-19T07:26:03.906Z,18.15
2022-12-19T07:26:35.855Z,24.15
2022-12-19T07:27:07.774Z,22.98
2022-12-19T07:27:39.254Z,22.05
2022-12-19T07:29:00.561Z,21.00
2022-12-19T07:29:31.861Z,19.27
2022-12-19T07:30:05.908Z,20.43
2022-12-19T07:30:37.311Z,19.50
2022-12-19T07:31:08.813Z,20.52
2022-12-19T07:31:40.398Z,18.17
2022-12-19T07:32:11.777Z,20.17
2022-12-19T07:32:43.291Z,20.90
2022-12-19T07:33:21.034Z,23.60
2022-12-19T07:33:53.023Z,22.25
2022-12-19T07:34:24.400Z,21.65
2022-12-19T07:34:55.969Z,21.33
2022-12-19T07:35:27.347Z,21.73
2022-12-19T07:35:58.700Z,23.67